Terminal Aerodrome Forecast
Issued by NWS

Home | Current Version | Previous Version | Text Only | Print | Product List | Glossary On
Versions: 1 2 3 4 5 6 7 8 9 10 11 12 13 14 15 16 17 18 19
000
FTUS41 KAKQ 230500 RRA
TAFPHF
TAF
KPHF 230546Z 2306/2406 27006KT P6SM SCT100 BKN250
     FM230900 34013G20KT P6SM SCT100
     FM231400 31017G26KT P6SM SKC
     FM232300 33010KT P6SM SKC=

USA.gov is the U.S. government's official web portal to all federal, state and local government web resources and services.